Date,TemperatureHighF,TemperatureAvgF,TemperatureLowF,DewpointHighF,DewpointAvgF,DewpointLowF,HumidityHigh,HumidityAvg,HumidityLow,PressureMaxIn,PressureMinIn,WindSpeedMaxMPH,WindSpeedAvgMPH,GustSpeedMaxMPH,PrecipitationSumIn
2013-6-1,78,65,51,-100,-100,-100,0,0,100,0.00,40.00,0,-999,0,0.00
2013-6-2,78,65,47,-100,-100,-100,0,0,100,0.00,40.00,0,-999,0,0.00
2013-6-3,76,62,45,-100,-100,-100,0,0,100,0.00,40.00,0,-999,0,0.00
2013-6-4,76,61,40,-100,-100,-100,0,0,100,0.00,40.00,0,-999,0,0.00
2013-6-5,80,62,42,-100,-100,-100,0,0,100,0.00,40.00,0,-999,0,0.00
2013-6-6,81,66,48,-100,-100,-100,0,0,100,0.00,40.00,0,-999,0,0.00
2013-6-7,83,65,49,-100,-100,-100,0,0,100,0.00,40.00,0,-999,0,0.00
2013-6-8,87,69,46,-100,-100,-100,0,0,100,0.00,40.00,0,-999,0,0.00
2013-6-9,87,69,48,-100,-100,-100,0,0,100,0.00,40.00,0,-999,0,0.00
2013-6-10,82,67,49,-100,-100,-100,0,0,100,0.00,40.00,0,-999,0,0.00
2013-6-11,82,68,49,-100,-100,-100,0,0,100,0.00,40.00,0,-999,0,0.00
2013-6-12,84,70,49,-100,-100,-100,0,0,100,0.00,40.00,0,-999,0,0.00
2013-6-13,81,65,48,-100,-100,-100,0,0,100,0.00,40.00,0,-999,0,0.00
2013-6-14,80,65,45,-100,-100,-100,0,0,100,0.00,40.00,0,-999,0,0.00
2013-6-15,77,64,47,-100,-100,-100,0,0,100,0.00,40.00,0,-999,0,0.01
2013-6-16,80,64,45,-100,-100,-100,0,0,100,0.00,40.00,0,-999,0,0.00
2013-6-17,79,65,43,-100,-100,-100,0,0,100,0.00,40.00,0,-999,0,0.00
2013-6-18,81,66,39,-100,-100,-100,0,0,100,0.00,40.00,0,-999,0,0.00
2013-6-19,78,64,44,-100,-100,-100,0,0,100,0.00,40.00,0,-999,0,0.00
2013-6-20,74,59,45,-100,-100,-100,0,0,100,0.00,40.00,0,-999,0,0.00
2013-6-22,76,67,47,-100,-100,-100,0,0,100,0.00,40.00,0,-999,0,0.00
2013-6-23,76,61,40,-100,-100,-100,0,0,100,0.00,40.00,0,-999,0,0.00
2013-6-24,73,62,49,-100,-100,-100,0,0,100,0.00,40.00,0,-999,0,0.00
2013-6-25,77,60,44,-100,-100,-100,0,0,100,0.00,40.00,0,-999,0,0.00
2013-6-26,81,65,44,-100,-100,-100,0,0,100,0.00,40.00,0,-999,0,0.00
2013-6-27,89,70,47,-100,-100,-100,0,0,100,0.00,40.00,0,-999,0,0.00
2013-6-28,90,78,60,-100,-100,-100,0,0,100,0.00,40.00,0,-999,0,0.01
2013-6-29,88,75,58,-100,-100,-100,0,0,100,0.00,40.00,0,-999,0,0.00
2013-6-30,87,73,58,-100,-100,-100,0,0,100,0.00,40.00,0,-999,0,0.01